Time;durP1;ratioP1;P1;durP2;ratioP2;P2;SDS_P1;SDS_P2;PMS_P1;PMS_P2;Temp;Humidity;BMP_temperature;BMP_pressure;BME280_temperature;BME280_humidity;BME280_pressure;Samples;Min_cycle;Max_cycle;Signal;HPM_P1;HPM_P2
2022/09/26 00:01:24;;;;;;;;;4.00;2.67;;;;;;;;5059477;28;46207;-72
2022/09/26 00:03:50;;;;;;;;;5.00;4.00;;;;;;;;5052746;28;45509;-72
2022/09/26 00:06:16;;;;;;;;;2.00;2.00;;;;;;;;5060205;28;45300;-72
2022/09/26 00:08:42;;;;;;;;;2.50;2.50;;;;;;;;5050502;28;45273;-72
2022/09/26 00:11:08;;;;;;;;;3.00;2.00;;;;;;;;5052480;28;46444;-72
2022/09/26 00:13:35;;;;;;;;;1.67;1.67;;;;;;;;5051133;28;45483;-71
2022/09/26 00:16:01;;;;;;;;;1.00;1.00;;;;;;;;5058708;28;45395;-72
2022/09/26 00:18:26;;;;;;;;;3.00;2.00;;;;;;;;5046830;28;45174;-72
2022/09/26 00:20:52;;;;;;;;;2.00;1.33;;;;;;;;5058642;28;47321;-72
2022/09/26 00:23:17;;;;;;;;;2.00;2.00;;;;;;;;5048424;28;45209;-72
2022/09/26 00:25:45;;;;;;;;;4.33;1.00;;;;;;;;5048750;28;45170;-72
2022/09/26 00:28:10;;;;;;;;;1.00;1.00;;;;;;;;5049788;28;45540;-72
2022/09/26 00:30:36;;;;;;;;;1.00;1.00;;;;;;;;5049439;28;45289;-72
2022/09/26 00:33:01;;;;;;;;;1.33;1.33;;;;;;;;5066207;28;45470;-72
2022/09/26 00:35:26;;;;;;;;;3.00;2.00;;;;;;;;5051388;28;45435;-72
2022/09/26 00:37:51;;;;;;;;;2.00;2.00;;;;;;;;5051669;28;45580;-72
2022/09/26 00:40:16;;;;;;;;;1.00;1.00;;;;;;;;5054923;28;46161;-72
2022/09/26 00:42:42;;;;;;;;;2.00;2.00;;;;;;;;5051766;28;45418;-72
2022/09/26 00:45:07;;;;;;;;;1.67;1.33;;;;;;;;5057832;28;45339;-72
2022/09/26 00:48:05;;;;;;;;;2.00;2.00;;;;;;;;5054795;28;45477;-72
2022/09/26 00:50:33;;;;;;;;;2.67;1.00;;;;;;;;5016916;28;45518;-72
2022/09/26 00:53:01;;;;;;;;;2.33;1.33;;;;;;;;5048010;28;45242;-72
2022/09/26 00:55:29;;;;;;;;;3.00;2.00;;;;;;;;5054829;28;45459;-72
2022/09/26 00:58:15;;;;;;;;;1.00;1.00;;;;;;;;5053378;28;45408;-72
2022/09/26 01:00:41;;;;;;;;;2.00;2.00;;;;;;;;5052751;28;47020;-72
2022/09/26 01:03:06;;;;;;;;;1.67;1.67;;;;;;;;5050240;28;45777;-72
2022/09/26 01:05:33;;;;;;;;;1.00;1.00;;;;;;;;5047149;28;45221;-72
2022/09/26 01:07:59;;;;;;;;;3.00;2.00;;;;;;;;5046174;28;45393;-72
2022/09/26 01:10:25;;;;;;;;;2.67;1.00;;;;;;;;5049906;28;46008;-72
2022/09/26 01:12:51;;;;;;;;;1.00;1.00;;;;;;;;5044341;28;45354;-72
2022/09/26 01:15:16;;;;;;;;;1.00;1.00;;;;;;;;5052360;28;45433;-72
2022/09/26 01:17:43;;;;;;;;;4.25;3.00;;;;;;;;5060901;28;45358;-72
2022/09/26 01:20:16;;;;;;;;;3.00;2.00;;;;;;;;5058048;28;45359;-72
2022/09/26 01:23:00;;;;;;;;;1.33;1.33;;;;;;;;5055205;28;45397;-72
2022/09/26 01:25:50;;;;;;;;;3.00;2.00;;;;;;;;5040931;28;45467;-72
2022/09/26 01:28:42;;;;;;;;;1.33;1.33;;;;;;;;5051912;28;45261;-72
2022/09/26 01:31:26;;;;;;;;;2.75;2.50;;;;;;;;5032645;28;45580;-72
2022/09/26 01:34:00;;;;;;;;;2.25;2.00;;;;;;;;5067548;28;45317;-72
2022/09/26 01:36:32;;;;;;;;;2.00;1.00;;;;;;;;5073183;28;45441;-72
2022/09/26 01:39:00;;;;;;;;;3.33;2.00;;;;;;;;5050815;28;45270;-72
2022/09/26 01:41:31;;;;;;;;;4.33;2.00;;;;;;;;5059906;28;46026;-72
2022/09/26 01:43:59;;;;;;;;;3.00;3.00;;;;;;;;5049220;28;45347;-72
2022/09/26 01:46:34;;;;;;;;;1.00;1.00;;;;;;;;5048515;28;45249;-72
2022/09/26 01:49:15;;;;;;;;;3.67;2.67;;;;;;;;5051829;28;45578;-72
2022/09/26 01:51:47;;;;;;;;;4.33;1.00;;;;;;;;5052337;28;46425;-72
2022/09/26 01:54:16;;;;;;;;;2.00;1.00;;;;;;;;5057403;28;45377;-72
2022/09/26 01:56:42;;;;;;;;;2.00;2.00;;;;;;;;5059161;28;45175;-72
2022/09/26 01:59:11;;;;;;;;;1.00;1.00;;;;;;;;5053417;28;45300;-72
2022/09/26 02:01:40;;;;;;;;;1.67;1.67;;;;;;;;5051425;28;45405;-72
2022/09/26 02:04:09;;;;;;;;;1.00;1.00;;;;;;;;5054830;27;45283;-72
2022/09/26 02:06:47;;;;;;;;;1.00;1.00;;;;;;;;5045727;28;45276;-72
2022/09/26 02:09:15;;;;;;;;;1.00;1.00;;;;;;;;5059864;28;45361;-72
2022/09/26 02:11:43;;;;;;;;;1.33;1.00;;;;;;;;5052502;28;45423;-72
2022/09/26 02:14:08;;;;;;;;;1.00;1.00;;;;;;;;5055793;28;45394;-72
2022/09/26 02:16:36;;;;;;;;;1.00;1.00;;;;;;;;5049548;28;45209;-72
2022/09/26 02:19:06;;;;;;;;;2.00;2.00;;;;;;;;5056020;28;45323;-72
2022/09/26 02:21:31;;;;;;;;;1.67;1.00;;;;;;;;5053776;28;45472;-72
2022/09/26 02:23:57;;;;;;;;;2.00;2.00;;;;;;;;5065689;28;45319;-72
2022/09/26 02:26:23;;;;;;;;;1.00;1.00;;;;;;;;5058500;28;45474;-72
2022/09/26 02:28:48;;;;;;;;;0.67;0.67;;;;;;;;5056785;28;45714;-72
2022/09/26 02:31:19;;;;;;;;;1.67;1.67;;;;;;;;5057434;28;45980;-72
2022/09/26 02:33:45;;;;;;;;;1.33;1.00;;;;;;;;5050051;28;45995;-72
2022/09/26 02:36:10;;;;;;;;;1.00;1.00;;;;;;;;5053011;28;45462;-72
2022/09/26 02:38:36;;;;;;;;;1.00;1.00;;;;;;;;5055182;28;45463;-72
2022/09/26 02:41:14;;;;;;;;;2.50;1.50;;;;;;;;5054658;28;45446;-72
2022/09/26 02:43:51;;;;;;;;;1.00;1.00;;;;;;;;5054224;28;44762;-72
2022/09/26 02:46:26;;;;;;;;;3.67;1.00;;;;;;;;5056927;28;45440;-72
2022/09/26 02:49:10;;;;;;;;;1.00;1.00;;;;;;;;5056220;28;45395;-72
2022/09/26 02:51:45;;;;;;;;;1.33;1.33;;;;;;;;5073286;28;46858;-73
2022/09/26 02:54:20;;;;;;;;;2.00;1.00;;;;;;;;5058088;28;45506;-72
2022/09/26 02:56:45;;;;;;;;;2.67;1.00;;;;;;;;5059112;28;45539;-72
2022/09/26 02:59:10;;;;;;;;;1.00;1.00;;;;;;;;5056646;28;45376;-71
2022/09/26 03:01:54;;;;;;;;;1.00;1.00;;;;;;;;5043109;28;45574;-71
2022/09/26 03:04:33;;;;;;;;;2.00;2.00;;;;;;;;5051247;28;45487;-71
2022/09/26 03:07:01;;;;;;;;;2.00;2.00;;;;;;;;5057341;28;45297;-71
2022/09/26 03:09:28;;;;;;;;;3.00;1.00;;;;;;;;5051624;28;45216;-71
2022/09/26 03:11:53;;;;;;;;;3.00;0.00;;;;;;;;5047275;28;46185;-71
2022/09/26 03:14:20;;;;;;;;;1.00;1.00;;;;;;;;5057834;28;45355;-71
2022/09/26 03:16:45;;;;;;;;;1.33;1.00;;;;;;;;5058133;27;45727;-72
2022/09/26 03:19:25;;;;;;;;;0.67;0.67;;;;;;;;5051428;28;45355;-72
2022/09/26 03:21:51;;;;;;;;;1.75;1.50;;;;;;;;5050155;28;45229;-72
2022/09/26 03:24:16;;;;;;;;;1.00;1.00;;;;;;;;5058348;28;45213;-72
2022/09/26 03:26:41;;;;;;;;;3.33;1.00;;;;;;;;5055294;28;45387;-72
2022/09/26 03:29:07;;;;;;;;;2.00;2.00;;;;;;;;5089630;27;46647;-72
2022/09/26 03:31:32;;;;;;;;;1.33;1.33;;;;;;;;5056085;28;45333;-72
2022/09/26 03:33:57;;;;;;;;;1.00;1.00;;;;;;;;5082521;27;45344;-72
2022/09/26 03:36:23;;;;;;;;;2.00;2.00;;;;;;;;5047375;28;45223;-72
2022/09/26 03:38:48;;;;;;;;;1.00;1.00;;;;;;;;5052299;28;46530;-72
2022/09/26 03:41:13;;;;;;;;;3.33;1.00;;;;;;;;5051552;28;47217;-72
2022/09/26 03:43:42;;;;;;;;;1.00;1.00;;;;;;;;5048452;28;45627;-72
2022/09/26 03:46:08;;;;;;;;;2.00;2.00;;;;;;;;5053174;28;45527;-72
2022/09/26 03:48:33;;;;;;;;;1.67;1.00;;;;;;;;5052165;28;45487;-72
2022/09/26 03:51:05;;;;;;;;;1.67;0.00;;;;;;;;5054746;28;46449;-72
2022/09/26 03:53:31;;;;;;;;;1.67;1.67;;;;;;;;5054910;28;45300;-72
2022/09/26 03:56:07;;;;;;;;;1.00;1.00;;;;;;;;5055950;28;45331;-71
2022/09/26 03:58:32;;;;;;;;;2.00;1.00;;;;;;;;5049585;28;45546;-72
2022/09/26 04:01:02;;;;;;;;;1.67;1.67;;;;;;;;5057761;28;46400;-72
2022/09/26 04:03:27;;;;;;;;;2.33;1.00;;;;;;;;5064741;28;45258;-72
2022/09/26 04:05:52;;;;;;;;;3.00;2.00;;;;;;;;5053626;28;45542;-72
2022/09/26 04:08:17;;;;;;;;;0.67;0.67;;;;;;;;5054457;28;45467;-72
2022/09/26 04:10:42;;;;;;;;;5.00;2.00;;;;;;;;5058074;28;45415;-72
2022/09/26 04:13:08;;;;;;;;;2.00;1.00;;;;;;;;5053136;28;45379;-72
2022/09/26 04:15:34;;;;;;;;;1.00;1.00;;;;;;;;5051608;28;45470;-72
2022/09/26 04:17:59;;;;;;;;;1.00;1.00;;;;;;;;5062926;28;45931;-72
2022/09/26 04:20:24;;;;;;;;;1.00;1.00;;;;;;;;5057632;28;45345;-72
2022/09/26 04:22:49;;;;;;;;;1.00;0.33;;;;;;;;5052809;28;45274;-72
2022/09/26 04:25:14;;;;;;;;;1.00;1.00;;;;;;;;5054631;28;45384;-72
2022/09/26 04:27:39;;;;;;;;;0.33;0.33;;;;;;;;5045987;28;45225;-72
2022/09/26 04:30:05;;;;;;;;;1.00;1.00;;;;;;;;5053416;28;45407;-72
2022/09/26 04:32:30;;;;;;;;;2.00;1.00;;;;;;;;5079210;27;45377;-72
2022/09/26 04:34:55;;;;;;;;;1.00;1.00;;;;;;;;5056428;28;45280;-72
2022/09/26 04:37:21;;;;;;;;;1.00;1.00;;;;;;;;5050633;28;45465;-72
2022/09/26 04:39:47;;;;;;;;;2.33;1.00;;;;;;;;5056179;28;46044;-72
2022/09/26 04:42:12;;;;;;;;;1.67;1.00;;;;;;;;5068410;28;45496;-72
2022/09/26 04:44:37;;;;;;;;;0.33;0.33;;;;;;;;5058254;28;45307;-72
2022/09/26 04:47:02;;;;;;;;;0.00;0.00;;;;;;;;5051897;28;45785;-72
2022/09/26 04:49:28;;;;;;;;;2.00;1.00;;;;;;;;5090748;27;47881;-72
2022/09/26 04:51:54;;;;;;;;;1.00;1.00;;;;;;;;5056555;28;45384;-72
2022/09/26 04:54:19;;;;;;;;;2.00;2.00;;;;;;;;5044795;28;45675;-72
2022/09/26 04:56:45;;;;;;;;;1.00;1.00;;;;;;;;5043835;28;45652;-72
2022/09/26 04:59:10;;;;;;;;;1.00;1.00;;;;;;;;5050756;28;45468;-72
2022/09/26 05:01:35;;;;;;;;;1.00;1.00;;;;;;;;5048428;28;45353;-72
2022/09/26 05:04:01;;;;;;;;;1.00;1.00;;;;;;;;5055740;28;45605;-72
2022/09/26 05:06:26;;;;;;;;;1.00;1.00;;;;;;;;5053280;28;44986;-72
2022/09/26 05:08:52;;;;;;;;;1.00;1.00;;;;;;;;5049008;28;45665;-72
2022/09/26 05:11:18;;;;;;;;;1.00;1.00;;;;;;;;5050965;28;45357;-72
2022/09/26 05:13:44;;;;;;;;;2.50;1.00;;;;;;;;5050530;28;45135;-72
2022/09/26 05:16:10;;;;;;;;;1.00;1.00;;;;;;;;5044722;28;45219;-71
2022/09/26 05:18:36;;;;;;;;;1.00;1.00;;;;;;;;5080312;27;46772;-71
2022/09/26 05:21:02;;;;;;;;;1.00;1.00;;;;;;;;5048539;28;45312;-71
2022/09/26 05:26:21;;;;;;;;;1.00;1.00;;;;;;;;5050273;28;44772;-73
2022/09/26 05:28:47;;;;;;;;;2.00;1.00;;;;;;;;5050013;28;46060;-73
2022/09/26 05:31:13;;;;;;;;;4.00;0.67;;;;;;;;5057292;28;45882;-71
2022/09/26 05:33:38;;;;;;;;;1.00;1.00;;;;;;;;5051426;28;45370;-73
2022/09/26 05:36:04;;;;;;;;;0.33;0.00;;;;;;;;5056826;28;45457;-73
2022/09/26 05:38:29;;;;;;;;;0.67;0.00;;;;;;;;5048615;28;45971;-73
2022/09/26 05:40:57;;;;;;;;;1.00;1.00;;;;;;;;5058201;28;45348;-69
2022/09/26 05:43:32;;;;;;;;;1.00;1.00;;;;;;;;5067490;28;45391;-72
2022/09/26 05:45:59;;;;;;;;;2.00;2.00;;;;;;;;5055449;28;45174;-71
2022/09/26 05:48:25;;;;;;;;;1.00;1.00;;;;;;;;5049758;28;46749;-71
2022/09/26 05:50:50;;;;;;;;;2.00;2.00;;;;;;;;5050036;28;45273;-73
2022/09/26 05:53:15;;;;;;;;;1.67;1.67;;;;;;;;5064312;28;45367;-72
2022/09/26 05:55:41;;;;;;;;;1.00;1.00;;;;;;;;5054991;28;45405;-73
2022/09/26 05:58:06;;;;;;;;;4.00;2.00;;;;;;;;5066468;28;47146;-73
2022/09/26 06:00:32;;;;;;;;;1.00;1.00;;;;;;;;5052662;28;45398;-72
2022/09/26 06:02:58;;;;;;;;;3.00;1.00;;;;;;;;5067953;28;45346;-73
2022/09/26 06:05:24;;;;;;;;;1.00;1.00;;;;;;;;5070743;28;46351;-73
2022/09/26 06:07:50;;;;;;;;;0.67;0.67;;;;;;;;5053155;28;45403;-73
2022/09/26 06:10:16;;;;;;;;;3.00;1.00;;;;;;;;5056586;28;45403;-72
2022/09/26 06:12:41;;;;;;;;;1.00;1.00;;;;;;;;5055151;28;45454;-73
2022/09/26 06:15:08;;;;;;;;;1.00;1.00;;;;;;;;5054599;28;45436;-73
2022/09/26 06:17:33;;;;;;;;;7.75;7.75;;;;;;;;5048377;28;45940;-73
2022/09/26 06:19:58;;;;;;;;;1.00;1.00;;;;;;;;5090104;27;45285;-72
2022/09/26 06:22:25;;;;;;;;;1.00;1.00;;;;;;;;5043378;28;45207;-72
2022/09/26 06:24:50;;;;;;;;;1.33;1.33;;;;;;;;5055558;28;45410;-73
2022/09/26 06:27:15;;;;;;;;;1.00;1.00;;;;;;;;5051380;28;46040;-72
2022/09/26 06:29:40;;;;;;;;;1.00;1.00;;;;;;;;5059697;28;45273;-72
2022/09/26 06:32:05;;;;;;;;;1.00;1.00;;;;;;;;5053573;28;45553;-73
2022/09/26 06:34:31;;;;;;;;;2.33;1.00;;;;;;;;5046410;28;45356;-74
2022/09/26 06:36:57;;;;;;;;;2.67;1.00;;;;;;;;5060833;28;46953;-73
2022/09/26 06:39:22;;;;;;;;;2.00;1.00;;;;;;;;5052968;28;45474;-71
2022/09/26 06:41:47;;;;;;;;;0.00;0.00;;;;;;;;5059355;28;45346;-74
2022/09/26 06:44:13;;;;;;;;;1.00;1.00;;;;;;;;5056298;28;45307;-72
2022/09/26 06:46:38;;;;;;;;;0.00;0.00;;;;;;;;5058137;28;45635;-71
2022/09/26 06:49:05;;;;;;;;;1.33;1.00;;;;;;;;5057262;28;45299;-71
2022/09/26 06:51:30;;;;;;;;;1.00;1.00;;;;;;;;5061287;28;45341;-72
2022/09/26 06:53:56;;;;;;;;;0.00;0.00;;;;;;;;5047146;28;45234;-71
2022/09/26 06:56:21;;;;;;;;;3.00;3.00;;;;;;;;5042617;28;46287;-71
2022/09/26 06:58:48;;;;;;;;;3.67;2.00;;;;;;;;5051478;28;45146;-72
2022/09/26 07:01:13;;;;;;;;;2.00;1.00;;;;;;;;5057902;28;45335;-73
2022/09/26 07:03:39;;;;;;;;;2.00;1.00;;;;;;;;5068752;28;46736;-72
2022/09/26 07:06:04;;;;;;;;;1.00;1.00;;;;;;;;5060488;28;45276;-72
2022/09/26 07:08:29;;;;;;;;;1.00;1.00;;;;;;;;5052170;28;45402;-72
2022/09/26 07:10:59;;;;;;;;;3.00;1.00;;;;;;;;5070156;28;45620;-72
2022/09/26 07:13:24;;;;;;;;;1.00;1.00;;;;;;;;5050386;28;45509;-73
2022/09/26 07:15:50;;;;;;;;;2.00;1.00;;;;;;;;5067476;28;47197;-72
2022/09/26 07:18:16;;;;;;;;;1.00;1.00;;;;;;;;5056041;28;45463;-70
2022/09/26 07:20:45;;;;;;;;;1.00;1.00;;;;;;;;5060030;28;45244;-71
2022/09/26 07:23:10;;;;;;;;;1.00;1.00;;;;;;;;5058534;28;44936;-71
2022/09/26 07:25:38;;;;;;;;;1.00;1.00;;;;;;;;5056509;28;45264;-72
2022/09/26 07:28:03;;;;;;;;;1.67;1.00;;;;;;;;5053006;28;45391;-72
2022/09/26 07:30:29;;;;;;;;;1.00;1.00;;;;;;;;5052327;28;45441;-72
2022/09/26 07:32:59;;;;;;;;;1.00;1.00;;;;;;;;5052791;28;45418;-72
2022/09/26 07:35:27;;;;;;;;;1.00;1.00;;;;;;;;5056142;28;46001;-72
2022/09/26 07:37:52;;;;;;;;;2.00;2.00;;;;;;;;5054689;28;45370;-71
2022/09/26 07:40:19;;;;;;;;;1.67;0.00;;;;;;;;5056085;28;45699;-71
2022/09/26 07:42:45;;;;;;;;;1.00;1.00;;;;;;;;5054174;28;45397;-72
2022/09/26 07:45:10;;;;;;;;;1.00;1.00;;;;;;;;5053855;28;45560;-72
2022/09/26 07:50:19;;;;;;;;;1.00;1.00;;;;;;;;5045361;28;45587;-72
2022/09/26 07:52:45;;;;;;;;;1.67;1.67;;;;;;;;5050846;28;45592;-72
2022/09/26 07:55:12;;;;;;;;;1.00;1.00;;;;;;;;5058718;28;46228;-72
2022/09/26 07:57:38;;;;;;;;;1.00;1.00;;;;;;;;5055314;27;45416;-72
2022/09/26 08:00:04;;;;;;;;;0.33;0.00;;;;;;;;5053546;28;45244;-72
2022/09/26 08:02:34;;;;;;;;;2.33;2.33;;;;;;;;5054377;28;47020;-73
2022/09/26 08:05:02;;;;;;;;;2.00;2.00;;;;;;;;5059038;28;45937;-72
2022/09/26 08:07:28;;;;;;;;;2.67;1.00;;;;;;;;5054656;28;45531;-72
2022/09/26 08:09:53;;;;;;;;;2.67;0.67;;;;;;;;5058296;28;45350;-72
2022/09/26 08:12:18;;;;;;;;;1.00;1.00;;;;;;;;5057343;28;46431;-72
2022/09/26 08:14:55;;;;;;;;;1.00;1.00;;;;;;;;5054467;28;45339;-72
2022/09/26 08:17:20;;;;;;;;;1.00;1.00;;;;;;;;5054911;28;45513;-72
2022/09/26 08:19:45;;;;;;;;;2.00;1.00;;;;;;;;5055444;28;45308;-72
2022/09/26 08:22:11;;;;;;;;;0.00;0.00;;;;;;;;5047657;28;45261;-72
2022/09/26 08:24:36;;;;;;;;;0.67;0.67;;;;;;;;5056765;28;46131;-72
2022/09/26 08:27:02;;;;;;;;;1.00;1.00;;;;;;;;5056557;28;45346;-71
2022/09/26 08:29:29;;;;;;;;;1.67;0.00;;;;;;;;5054742;28;45432;-71
2022/09/26 08:31:55;;;;;;;;;1.33;1.00;;;;;;;;5055172;28;45378;-72
2022/09/26 08:34:20;;;;;;;;;1.00;1.00;;;;;;;;5055082;28;46418;-73
2022/09/26 08:36:53;;;;;;;;;0.67;0.67;;;;;;;;5057973;27;45552;-72
2022/09/26 08:39:18;;;;;;;;;3.00;2.00;;;;;;;;5051678;28;45428;-72
2022/09/26 08:41:44;;;;;;;;;1.00;1.00;;;;;;;;5043628;28;47150;-72
2022/09/26 08:44:29;;;;;;;;;1.33;1.33;;;;;;;;5057333;28;45549;-72
2022/09/26 08:47:00;;;;;;;;;2.00;1.00;;;;;;;;5055165;28;45638;-72
2022/09/26 08:49:38;;;;;;;;;1.00;1.00;;;;;;;;5062096;28;45287;-74
2022/09/26 08:52:05;;;;;;;;;3.00;2.00;;;;;;;;5054132;28;45297;-72
2022/09/26 08:54:30;;;;;;;;;1.00;1.00;;;;;;;;5057122;28;46210;-72
2022/09/26 08:56:59;;;;;;;;;1.00;1.00;;;;;;;;5056919;28;45414;-72
2022/09/26 08:59:28;;;;;;;;;0.33;0.33;;;;;;;;5058288;28;45268;-73
2022/09/26 09:01:55;;;;;;;;;3.67;1.00;;;;;;;;5043726;28;45478;-72
2022/09/26 09:04:50;;;;;;;;;2.33;1.00;;;;;;;;5052604;28;47247;-72
2022/09/26 09:07:22;;;;;;;;;3.67;2.00;;;;;;;;5032243;28;45554;-73
2022/09/26 09:09:48;;;;;;;;;1.67;1.00;;;;;;;;5054692;28;45390;-72
2022/09/26 09:12:13;;;;;;;;;3.33;1.00;;;;;;;;5049283;28;45513;-72
2022/09/26 09:14:39;;;;;;;;;1.00;1.00;;;;;;;;5058217;28;45229;-72
2022/09/26 09:17:04;;;;;;;;;0.67;0.67;;;;;;;;5052979;28;45379;-73
2022/09/26 09:19:32;;;;;;;;;1.00;1.00;;;;;;;;5058177;28;45962;-72
2022/09/26 09:22:17;;;;;;;;;2.00;2.00;;;;;;;;5071889;28;46277;-72
2022/09/26 09:24:50;;;;;;;;;3.00;2.00;;;;;;;;5025796;28;46135;-73
2022/09/26 09:27:15;;;;;;;;;1.00;1.00;;;;;;;;5055540;28;45448;-72
2022/09/26 09:29:52;;;;;;;;;1.00;1.00;;;;;;;;5057959;28;45358;-73
2022/09/26 09:32:20;;;;;;;;;1.67;1.67;;;;;;;;5056937;28;45462;-73
2022/09/26 09:34:46;;;;;;;;;1.00;1.00;;;;;;;;5056574;28;45225;-73
2022/09/26 09:37:14;;;;;;;;;1.00;1.00;;;;;;;;5054471;28;45531;-73
2022/09/26 09:39:41;;;;;;;;;1.00;1.00;;;;;;;;5057669;28;45387;-73
2022/09/26 09:42:27;;;;;;;;;4.00;1.00;;;;;;;;5054371;28;45649;-73
2022/09/26 09:45:04;;;;;;;;;2.00;1.00;;;;;;;;5057893;28;45469;-73
2022/09/26 09:47:31;;;;;;;;;1.33;1.33;;;;;;;;5056195;28;45445;-74
2022/09/26 09:49:58;;;;;;;;;1.67;1.00;;;;;;;;5057287;28;45740;-73
2022/09/26 09:52:42;;;;;;;;;1.00;1.00;;;;;;;;5055388;28;45352;-73
2022/09/26 09:55:26;;;;;;;;;1.33;1.33;;;;;;;;5056454;28;45376;-73
2022/09/26 09:58:00;;;;;;;;;1.00;1.00;;;;;;;;5069802;28;45342;-73
2022/09/26 10:00:29;;;;;;;;;3.00;1.00;;;;;;;;5059071;28;45508;-73
2022/09/26 10:03:01;;;;;;;;;4.00;1.67;;;;;;;;5059454;28;45330;-73
2022/09/26 10:05:41;;;;;;;;;3.00;2.00;;;;;;;;5057052;28;47352;-73
2022/09/26 10:08:23;;;;;;;;;1.33;1.33;;;;;;;;5057054;28;45549;-73
2022/09/26 10:10:56;;;;;;;;;1.33;1.00;;;;;;;;5061249;28;45340;-73
2022/09/26 10:13:24;;;;;;;;;1.00;1.00;;;;;;;;5054007;28;45636;-73
2022/09/26 10:15:58;;;;;;;;;1.00;1.00;;;;;;;;5061597;28;45384;-73
2022/09/26 10:18:23;;;;;;;;;1.67;1.67;;;;;;;;5050619;28;45510;-74
2022/09/26 10:20:51;;;;;;;;;1.00;1.00;;;;;;;;5043672;28;45327;-73
2022/09/26 10:23:20;;;;;;;;;0.00;0.00;;;;;;;;5057015;28;45523;-73
2022/09/26 10:25:47;;;;;;;;;1.67;1.00;;;;;;;;5058373;28;46230;-72
2022/09/26 10:28:23;;;;;;;;;2.33;1.00;;;;;;;;5054852;28;45511;-73
2022/09/26 10:30:55;;;;;;;;;2.67;1.67;;;;;;;;5059507;28;45373;-72
2022/09/26 10:33:22;;;;;;;;;2.00;2.00;;;;;;;;5055251;28;45447;-73
2022/09/26 10:35:50;;;;;;;;;1.00;1.00;;;;;;;;5052596;28;45427;-74
2022/09/26 10:38:18;;;;;;;;;2.00;1.00;;;;;;;;5056737;28;45325;-74
2022/09/26 10:40:49;;;;;;;;;1.00;1.00;;;;;;;;5056487;28;45634;-73
2022/09/26 10:43:34;;;;;;;;;2.00;2.00;;;;;;;;5070835;28;45989;-76
2022/09/26 10:46:00;;;;;;;;;1.67;1.00;;;;;;;;5056215;28;46607;-75
2022/09/26 10:48:33;;;;;;;;;2.25;1.00;;;;;;;;5057752;28;45399;-75
2022/09/26 10:51:00;;;;;;;;;4.00;1.00;;;;;;;;5059267;28;45403;-75
2022/09/26 10:53:30;;;;;;;;;1.00;1.00;;;;;;;;5068223;28;45597;-75
2022/09/26 10:55:58;;;;;;;;;1.00;1.00;;;;;;;;5056618;28;45659;-75
2022/09/26 10:58:28;;;;;;;;;3.00;0.67;;;;;;;;5057729;28;45456;-73
2022/09/26 11:00:54;;;;;;;;;3.00;1.00;;;;;;;;5058300;28;45323;-74
2022/09/26 11:03:22;;;;;;;;;2.67;1.67;;;;;;;;5054875;28;45427;-74
2022/09/26 11:05:56;;;;;;;;;2.00;2.00;;;;;;;;5057447;28;46156;-74
2022/09/26 11:08:29;;;;;;;;;2.00;2.00;;;;;;;;5050736;28;45364;-73
2022/09/26 11:10:55;;;;;;;;;2.33;2.00;;;;;;;;5058115;28;44702;-73
2022/09/26 11:13:22;;;;;;;;;1.00;1.00;;;;;;;;5054859;28;45745;-73
2022/09/26 11:16:01;;;;;;;;;3.00;3.00;;;;;;;;5051493;28;45469;-73
2022/09/26 11:18:46;;;;;;;;;2.00;2.00;;;;;;;;5051745;28;45465;-72
2022/09/26 11:21:30;;;;;;;;;2.00;2.00;;;;;;;;5050320;28;45277;-73
2022/09/26 11:24:02;;;;;;;;;3.00;3.00;;;;;;;;5057020;28;45688;-73
2022/09/26 11:26:37;;;;;;;;;0.00;0.00;;;;;;;;5057971;28;45837;-73
2022/09/26 11:29:13;;;;;;;;;3.00;1.00;;;;;;;;5056825;28;45346;-73
2022/09/26 11:31:41;;;;;;;;;2.00;1.67;;;;;;;;5058820;28;45382;-72
2022/09/26 11:34:10;;;;;;;;;4.00;2.00;;;;;;;;5057861;28;45553;-72
2022/09/26 11:36:54;;;;;;;;;3.00;3.00;;;;;;;;5059784;28;46528;-72
2022/09/26 11:39:41;;;;;;;;;2.33;2.33;;;;;;;;5060367;28;45307;-73
2022/09/26 11:42:06;;;;;;;;;3.00;3.00;;;;;;;;5054663;28;45543;-74
2022/09/26 11:44:44;;;;;;;;;3.67;2.00;;;;;;;;5057591;28;45440;-72
2022/09/26 11:47:27;;;;;;;;;2.00;1.67;;;;;;;;5057155;28;45354;-72
2022/09/26 11:50:12;;;;;;;;;2.00;2.00;;;;;;;;5055210;28;45383;-71
2022/09/26 11:53:03;;;;;;;;;1.00;1.00;;;;;;;;5052552;28;46374;-75
2022/09/26 11:55:35;;;;;;;;;5.00;2.33;;;;;;;;5023202;28;45320;-75
2022/09/26 11:58:05;;;;;;;;;2.00;2.00;;;;;;;;5048358;28;45553;-76
2022/09/26 12:00:41;;;;;;;;;4.00;1.00;;;;;;;;5052509;28;45120;-76
2022/09/26 12:03:19;;;;;;;;;1.00;1.00;;;;;;;;5053469;28;45264;-76
2022/09/26 12:05:47;;;;;;;;;3.00;3.00;;;;;;;;5052914;28;45660;-77
2022/09/26 12:08:21;;;;;;;;;2.00;2.00;;;;;;;;5046669;28;46677;-76
2022/09/26 12:10:47;;;;;;;;;2.33;2.33;;;;;;;;5049164;28;45309;-75
2022/09/26 12:13:16;;;;;;;;;1.00;1.00;;;;;;;;5056526;28;45528;-75
2022/09/26 12:15:44;;;;;;;;;4.33;1.00;;;;;;;;5056878;28;45360;-73
2022/09/26 12:18:12;;;;;;;;;2.00;2.00;;;;;;;;5050233;28;46014;-76
2022/09/26 12:20:46;;;;;;;;;1.00;1.00;;;;;;;;5057645;28;45284;-76
2022/09/26 12:23:22;;;;;;;;;5.00;2.67;;;;;;;;5067536;28;45297;-76
2022/09/26 12:25:54;;;;;;;;;3.00;3.00;;;;;;;;5051868;28;45454;-75
2022/09/26 12:28:43;;;;;;;;;3.67;2.00;;;;;;;;5088176;27;45425;-75
2022/09/26 12:31:16;;;;;;;;;4.00;3.00;;;;;;;;5028256;28;45446;-75
2022/09/26 12:33:44;;;;;;;;;1.00;1.00;;;;;;;;5054391;28;45493;-76
2022/09/26 12:36:30;;;;;;;;;1.67;1.67;;;;;;;;5058148;28;45380;-75
2022/09/26 12:39:01;;;;;;;;;2.00;1.00;;;;;;;;5051470;28;45442;-76
2022/09/26 12:41:45;;;;;;;;;5.00;3.33;;;;;;;;5046619;28;45296;-76
2022/09/26 12:44:10;;;;;;;;;3.25;3.25;;;;;;;;5053236;28;45651;-75
2022/09/26 12:46:53;;;;;;;;;5.67;4.33;;;;;;;;5054148;28;45352;-76
2022/09/26 12:49:43;;;;;;;;;1.00;1.00;;;;;;;;5051395;28;45500;-76
2022/09/26 12:52:21;;;;;;;;;1.00;1.00;;;;;;;;5057807;28;48077;-75
2022/09/26 12:54:48;;;;;;;;;2.67;2.00;;;;;;;;5063881;28;45308;-75
2022/09/26 12:57:16;;;;;;;;;1.00;1.00;;;;;;;;5048458;28;45253;-75
2022/09/26 12:59:57;;;;;;;;;2.00;2.00;;;;;;;;5055275;28;45370;-76
2022/09/26 13:02:40;;;;;;;;;3.00;2.00;;;;;;;;5054189;28;45426;-75
2022/09/26 13:05:15;;;;;;;;;1.00;0.67;;;;;;;;5054646;28;45297;-75
2022/09/26 13:07:43;;;;;;;;;1.00;1.00;;;;;;;;5044066;28;45181;-76
2022/09/26 13:10:11;;;;;;;;;1.00;1.00;;;;;;;;5052458;28;46485;-75
2022/09/26 13:12:52;;;;;;;;;1.00;1.00;;;;;;;;5042935;28;45722;-76
2022/09/26 13:15:17;;;;;;;;;1.00;1.00;;;;;;;;5055694;28;45379;-76
2022/09/26 13:17:45;;;;;;;;;0.33;0.33;;;;;;;;5046798;28;45287;-78
2022/09/26 13:20:16;;;;;;;;;2.00;1.00;;;;;;;;5057008;28;45432;-78
2022/09/26 13:22:41;;;;;;;;;1.67;1.00;;;;;;;;5049672;28;45415;-79
2022/09/26 13:25:09;;;;;;;;;0.67;0.67;;;;;;;;5059891;28;45382;-75
2022/09/26 13:27:37;;;;;;;;;0.67;0.67;;;;;;;;5052964;28;45308;-77
2022/09/26 13:30:04;;;;;;;;;0.00;0.00;;;;;;;;5048287;28;46219;-76
2022/09/26 13:32:41;;;;;;;;;0.00;0.00;;;;;;;;5051868;28;45453;-75
2022/09/26 13:35:13;;;;;;;;;3.00;1.00;;;;;;;;5063862;28;45376;-77
2022/09/26 13:37:52;;;;;;;;;0.00;0.00;;;;;;;;5050046;28;45740;-76
2022/09/26 13:40:43;;;;;;;;;0.67;0.67;;;;;;;;5053937;28;47000;-76
2022/09/26 13:43:27;;;;;;;;;0.33;0.33;;;;;;;;5023502;28;45431;-77
2022/09/26 13:45:59;;;;;;;;;1.00;0.00;;;;;;;;5041880;28;45523;-76
2022/09/26 13:48:37;;;;;;;;;0.00;0.00;;;;;;;;5079015;27;45252;-76
2022/09/26 13:51:16;;;;;;;;;1.00;1.00;;;;;;;;5053326;28;45225;-76
2022/09/26 13:53:49;;;;;;;;;1.00;1.00;;;;;;;;5047455;28;45270;-76
2022/09/26 13:56:46;;;;;;;;;1.00;1.00;;;;;;;;5048930;28;45372;-76
2022/09/26 13:59:11;;;;;;;;;0.00;0.00;;;;;;;;5040323;28;45381;-73
2022/09/26 14:01:37;;;;;;;;;1.67;0.33;;;;;;;;5058677;28;45266;-73
2022/09/26 14:04:16;;;;;;;;;2.00;1.00;;;;;;;;5055774;28;45415;-74
2022/09/26 14:09:22;;;;;;;;;1.00;1.00;;;;;;;;5056027;28;44816;-73
2022/09/26 14:10:13;;;;;;;;;1.00;1.00;;;;;;;;5054362;28;45434;-73
2022/09/26 14:12:50;;;;;;;;;1.00;1.00;;;;;;;;5042626;28;45441;-73
2022/09/26 14:15:17;;;;;;;;;0.00;0.00;;;;;;;;5048735;28;45328;-73
2022/09/26 14:17:43;;;;;;;;;0.33;0.33;;;;;;;;5050334;28;45457;-73
2022/09/26 14:20:15;;;;;;;;;0.00;0.00;;;;;;;;5056414;28;45793;-73
2022/09/26 14:22:51;;;;;;;;;1.00;0.00;;;;;;;;5047786;28;45403;-73
2022/09/26 14:25:40;;;;;;;;;0.00;0.00;;;;;;;;5051890;28;45324;-73
2022/09/26 14:28:28;;;;;;;;;0.00;0.00;;;;;;;;5041043;28;45210;-73
2022/09/26 14:31:10;;;;;;;;;0.00;0.00;;;;;;;;5046008;28;45313;-73
2022/09/26 14:33:36;;;;;;;;;0.00;0.00;;;;;;;;5047550;28;45469;-73
2022/09/26 14:36:17;;;;;;;;;0.00;0.00;;;;;;;;5050643;28;45238;-72
2022/09/26 14:38:45;;;;;;;;;0.00;0.00;;;;;;;;5049673;28;45439;-72
2022/09/26 14:41:16;;;;;;;;;0.00;0.00;;;;;;;;5056613;28;45482;-72
2022/09/26 14:43:41;;;;;;;;;1.00;1.00;;;;;;;;5054480;28;46261;-72
2022/09/26 14:46:15;;;;;;;;;2.00;1.00;;;;;;;;5058869;28;45336;-73
2022/09/26 14:48:41;;;;;;;;;2.00;0.67;;;;;;;;5050415;28;45378;-72
2022/09/26 14:51:14;;;;;;;;;1.00;1.00;;;;;;;;5054678;28;45390;-72
2022/09/26 14:53:41;;;;;;;;;1.00;1.00;;;;;;;;5051179;28;46157;-73
2022/09/26 14:56:09;;;;;;;;;0.00;0.00;;;;;;;;5056322;28;45406;-72
2022/09/26 14:58:37;;;;;;;;;0.33;0.00;;;;;;;;5048813;28;45237;-72
2022/09/26 15:01:16;;;;;;;;;1.00;0.00;;;;;;;;5060998;28;45300;-72
2022/09/26 15:03:48;;;;;;;;;1.00;1.00;;;;;;;;5051528;28;46998;-72
2022/09/26 15:06:13;;;;;;;;;0.00;0.00;;;;;;;;5051944;28;45272;-72